Time;durP1;ratioP1;P1;durP2;ratioP2;P2;SDS_P1;SDS_P2;PMS_P1;PMS_P2;Temp;Humidity;BMP_temperature;BMP_pressure;BME280_temperature;BME280_humidity;BME280_pressure;Samples;Min_cycle;Max_cycle;Signal;HPM_P1;HPM_P2
2022/07/31 00:00:08;;;;;;;;;;;;;;;15.61;60.41;96732.97;6221927;28;19926;-66
2022/07/31 00:03:12;;;;;;;;;;;;;;;15.59;62.37;96724.31;6220641;28;19926;-66
2022/07/31 00:06:17;;;;;;;;;;;;;;;15.59;61.41;96719.00;6221172;28;19925;-65
2022/07/31 00:09:18;;;;;;;;;;;;;;;15.56;60.97;96715.78;6221213;28;19933;-65
2022/07/31 00:12:21;;;;;;;;;;;;;;;15.53;60.66;96719.53;6151207;28;2039392;-66
2022/07/31 00:15:23;;;;;;;;;;;;;;;15.48;61.06;96714.66;6222403;28;19925;-66
2022/07/31 00:18:26;;;;;;;;;;;;;;;15.48;60.87;96721.75;6222368;28;20011;-65
2022/07/31 00:21:30;;;;;;;;;;;;;;;15.48;61.01;96721.75;6222120;28;20311;-66
2022/07/31 00:24:31;;;;;;;;;;;;;;;15.50;61.51;96725.13;6221890;28;19925;-65
2022/07/31 00:27:32;;;;;;;;;;;;;;;15.61;60.49;96722.38;6222329;28;19936;-66
2022/07/31 00:30:37;;;;;;;;;;;;;;;15.71;61.48;96723.28;6222267;28;19925;-67
2022/07/31 00:33:38;;;;;;;;;;;;;;;15.84;61.75;96723.03;6222079;28;19932;-67
2022/07/31 00:36:42;;;;;;;;;;;;;;;15.95;62.29;96716.78;6222098;28;20295;-66
2022/07/31 00:39:43;;;;;;;;;;;;;;;16.04;60.66;96718.59;6222337;28;19932;-66
2022/07/31 00:42:47;;;;;;;;;;;;;;;16.09;59.94;96715.53;6221829;28;19933;-66
2022/07/31 00:45:49;;;;;;;;;;;;;;;16.14;59.94;96715.97;6221715;28;19926;-66
2022/07/31 00:48:54;;;;;;;;;;;;;;;16.15;60.35;96715.81;6221934;28;19925;-65
2022/07/31 00:51:55;;;;;;;;;;;;;;;16.17;60.25;96713.03;6221678;28;19925;-66
2022/07/31 00:54:56;;;;;;;;;;;;;;;16.22;60.84;96712.63;6221546;28;20430;-68
2022/07/31 00:58:02;;;;;;;;;;;;;;;16.30;60.40;96718.06;6221767;28;20407;-66
2022/07/31 01:01:03;;;;;;;;;;;;;;;16.38;59.88;96712.91;6221184;28;20424;-66
2022/07/31 01:04:07;;;;;;;;;;;;;;;16.43;59.90;96713.34;6221358;28;19926;-66
2022/07/31 01:07:08;;;;;;;;;;;;;;;16.53;59.79;96706.22;6221519;28;19926;-66
2022/07/31 01:10:10;;;;;;;;;;;;;;;16.60;59.82;96707.31;6221292;28;20314;-65
2022/07/31 01:13:14;;;;;;;;;;;;;;;16.66;59.81;96713.03;6221255;28;19933;-65
2022/07/31 01:16:17;;;;;;;;;;;;;;;16.75;59.88;96722.81;6221561;28;19926;-65
2022/07/31 01:19:36;;;;;;;;;;;;;;;16.88;59.82;96723.41;6224809;28;19925;-65
2022/07/31 01:22:39;;;;;;;;;;;;;;;17.01;60.38;96718.63;6226458;28;20300;-66
2022/07/31 01:26:18;;;;;;;;;;;;;;;17.14;58.95;96723.63;6226291;28;19929;-65
2022/07/31 01:29:31;;;;;;;;;;;;;;;17.29;58.87;96721.34;6176859;28;19926;-66
2022/07/31 01:32:37;;;;;;;;;;;;;;;17.44;59.02;96725.22;6226456;28;19952;-66
2022/07/31 01:35:42;;;;;;;;;;;;;;;17.55;58.43;96715.34;6226137;28;19921;-66
2022/07/31 01:38:48;;;;;;;;;;;;;;;17.61;58.47;96712.97;6225977;28;19925;-65
2022/07/31 01:41:52;;;;;;;;;;;;;;;17.67;58.39;96708.88;6225939;28;19921;-65
2022/07/31 01:44:56;;;;;;;;;;;;;;;17.70;58.79;96709.41;6225750;28;19926;-66
2022/07/31 01:47:59;;;;;;;;;;;;;;;17.73;59.58;96718.94;6225687;28;19948;-65
2022/07/31 01:51:03;;;;;;;;;;;;;;;17.77;58.76;96711.47;6225912;28;19932;-66
2022/07/31 01:54:04;;;;;;;;;;;;;;;17.73;58.46;96709.13;6225857;28;20302;-65
2022/07/31 01:57:09;;;;;;;;;;;;;;;17.69;59.59;96709.53;6225836;28;19929;-66
2022/07/31 02:00:13;;;;;;;;;;;;;;;17.61;59.75;96712.13;6225564;28;19925;-66
2022/07/31 02:03:16;;;;;;;;;;;;;;;17.53;59.95;96706.72;6225600;28;19976;-66
2022/07/31 02:06:22;;;;;;;;;;;;;;;17.42;59.64;96705.06;6225518;28;20021;-65
2022/07/31 02:09:24;;;;;;;;;;;;;;;17.34;60.43;96708.44;6225215;28;20422;-65
2022/07/31 02:12:26;;;;;;;;;;;;;;;17.31;60.27;96714.06;6225105;28;19925;-64
2022/07/31 02:15:51;;;;;;;;;;;;;;;17.28;61.30;96714.34;6224071;28;20320;-67
2022/07/31 02:18:52;;;;;;;;;;;;;;;17.26;61.00;96714.47;6225031;28;19925;-66
2022/07/31 02:21:54;;;;;;;;;;;;;;;17.27;61.68;96718.00;6225024;28;20019;-65
2022/07/31 02:24:55;;;;;;;;;;;;;;;17.25;60.29;96712.81;6224815;28;19925;-65
2022/07/31 02:28:02;;;;;;;;;;;;;;;17.27;61.50;96710.03;6225006;28;20386;-65
2022/07/31 02:31:09;;;;;;;;;;;;;;;17.32;59.72;96709.56;6224742;28;20310;-66
2022/07/31 02:34:16;;;;;;;;;;;;;;;17.32;59.67;96715.72;6224811;28;20310;-66
2022/07/31 02:37:17;;;;;;;;;;;;;;;17.39;59.77;96716.00;6224463;28;19929;-65
2022/07/31 02:40:19;;;;;;;;;;;;;;;17.46;59.95;96709.09;6224846;28;20378;-65
2022/07/31 02:43:21;;;;;;;;;;;;;;;17.55;58.91;96716.22;6222736;28;20026;-66
2022/07/31 02:46:22;;;;;;;;;;;;;;;17.67;59.00;96714.19;6223955;28;19925;-65
2022/07/31 02:49:25;;;;;;;;;;;;;;;17.87;58.93;96715.81;6224342;28;19932;-65
2022/07/31 02:52:32;;;;;;;;;;;;;;;18.12;58.17;96718.75;6224704;28;20379;-65
2022/07/31 02:55:34;;;;;;;;;;;;;;;18.38;58.51;96724.16;6224399;28;19932;-66
2022/07/31 02:58:40;;;;;;;;;;;;;;;18.62;57.80;96716.38;6223748;28;19925;-65
2022/07/31 03:01:44;;;;;;;;;;;;;;;18.82;57.30;96722.44;6224047;28;20015;-66
2022/07/31 03:04:47;;;;;;;;;;;;;;;18.99;56.07;96714.53;6224008;28;19925;-66
2022/07/31 03:07:50;;;;;;;;;;;;;;;19.12;55.96;96717.63;6223771;28;19925;-66
2022/07/31 03:10:54;;;;;;;;;;;;;;;19.28;56.00;96711.59;6223782;28;19929;-66
2022/07/31 03:13:57;;;;;;;;;;;;;;;19.45;55.61;96712.50;6223491;28;19925;-65
2022/07/31 03:16:58;;;;;;;;;;;;;;;19.56;55.70;96714.91;6223722;28;19925;-66
2022/07/31 03:20:04;;;;;;;;;;;;;;;19.63;55.58;96715.91;6223681;28;19925;-66
2022/07/31 03:23:06;;;;;;;;;;;;;;;19.72;55.18;96715.00;6223651;28;20092;-66
2022/07/31 03:26:09;;;;;;;;;;;;;;;19.81;54.77;96723.03;6223267;28;19925;-65
2022/07/31 03:29:15;;;;;;;;;;;;;;;19.93;54.83;96717.25;6223415;28;20332;-66
2022/07/31 03:32:18;;;;;;;;;;;;;;;20.10;53.92;96712.81;6223793;28;20298;-65
2022/07/31 03:35:21;;;;;;;;;;;;;;;20.15;53.43;96718.47;6223266;28;19929;-65
2022/07/31 03:38:23;;;;;;;;;;;;;;;20.21;53.60;96713.47;6222845;28;20311;-65
2022/07/31 03:41:26;;;;;;;;;;;;;;;20.24;53.39;96718.50;6222063;28;19925;-65
2022/07/31 03:44:30;;;;;;;;;;;;;;;20.28;53.22;96714.50;6222943;28;19965;-65
2022/07/31 03:47:32;;;;;;;;;;;;;;;20.35;53.03;96713.69;6223047;28;19953;-66
2022/07/31 03:50:37;;;;;;;;;;;;;;;20.28;53.08;96709.16;6223053;28;19933;-65
2022/07/31 03:53:41;;;;;;;;;;;;;;;20.30;52.98;96708.00;6222880;28;19929;-66
2022/07/31 03:56:45;;;;;;;;;;;;;;;20.34;52.93;96712.00;6222444;28;19925;-66
2022/07/31 03:59:55;;;;;;;;;;;;;;;20.47;52.75;96713.38;6222509;28;19973;-66
2022/07/31 04:03:03;;;;;;;;;;;;;;;20.50;52.55;96716.56;6222632;28;19932;-65
2022/07/31 04:06:07;;;;;;;;;;;;;;;20.61;52.24;96716.25;6222697;28;19925;-65
2022/07/31 04:09:10;;;;;;;;;;;;;;;20.70;52.23;96719.78;6222442;28;19926;-66
2022/07/31 04:12:11;;;;;;;;;;;;;;;20.82;52.07;96720.28;6222113;28;20005;-66
2022/07/31 04:15:14;;;;;;;;;;;;;;;20.88;51.99;96722.28;6222315;28;19929;-66
2022/07/31 04:18:16;;;;;;;;;;;;;;;21.08;51.76;96728.94;6222024;28;19929;-64
2022/07/31 04:21:19;;;;;;;;;;;;;;;21.32;51.08;96721.91;6222240;28;19926;-66
2022/07/31 04:24:20;;;;;;;;;;;;;;;21.66;50.30;96720.84;6221672;28;19921;-66
2022/07/31 04:27:24;;;;;;;;;;;;;;;22.15;49.10;96718.78;6221991;28;19921;-66
2022/07/31 04:30:25;;;;;;;;;;;;;;;22.50;48.76;96719.25;6221407;28;20306;-66
2022/07/31 04:33:29;;;;;;;;;;;;;;;22.95;47.53;96711.38;6222250;28;19925;-64
2022/07/31 04:36:33;;;;;;;;;;;;;;;23.40;46.25;96712.31;6221896;28;19922;-65
2022/07/31 04:39:37;;;;;;;;;;;;;;;23.60;45.85;96720.66;6222258;28;19926;-66
2022/07/31 04:42:41;;;;;;;;;;;;;;;23.81;45.15;96712.75;6221956;28;19925;-66
2022/07/31 04:45:46;;;;;;;;;;;;;;;24.56;44.57;96713.44;6221832;28;19921;-66
2022/07/31 04:48:50;;;;;;;;;;;;;;;25.98;42.42;96716.81;6221559;28;19925;-66
2022/07/31 04:51:52;;;;;;;;;;;;;;;28.13;39.67;96725.75;6221571;28;20291;-65
2022/07/31 04:54:56;;;;;;;;;;;;;;;30.14;36.68;96725.94;6221387;28;19933;-65
2022/07/31 04:58:00;;;;;;;;;;;;;;;31.04;35.06;96730.63;6221213;28;20000;-65
2022/07/31 05:01:03;;;;;;;;;;;;;;;32.26;34.80;96731.84;6221545;28;19925;-66
2022/07/31 05:04:05;;;;;;;;;;;;;;;35.82;30.57;96744.50;6221219;28;19926;-65
2022/07/31 05:07:08;;;;;;;;;;;;;;;39.32;24.71;96742.28;6221573;28;20391;-66
2022/07/31 05:11:21;;;;;;;;;;;;;;;42.15;22.31;96739.13;6221363;28;19926;-66
2022/07/31 05:13:34;;;;;;;;;;;;;;;44.58;22.60;96752.19;6221323;28;20344;-65
2022/07/31 05:16:36;;;;;;;;;;;;;;;45.77;19.40;96752.94;6220769;28;19921;-65
2022/07/31 05:19:39;;;;;;;;;;;;;;;46.86;18.77;96750.75;6221329;28;19925;-65
2022/07/31 05:22:42;;;;;;;;;;;;;;;48.37;20.31;96743.91;6221293;28;20053;-66
2022/07/31 05:25:45;;;;;;;;;;;;;;;49.19;17.11;96745.69;6220889;28;20419;-65
2022/07/31 05:28:48;;;;;;;;;;;;;;;49.58;12.95;96746.06;6220837;28;20410;-66
2022/07/31 05:31:51;;;;;;;;;;;;;;;50.38;14.82;96733.00;6220994;28;20404;-66
2022/07/31 05:34:57;;;;;;;;;;;;;;;51.09;11.32;96734.66;6221049;28;19925;-65
2022/07/31 05:38:02;;;;;;;;;;;;;;;51.47;13.61;96733.09;6220707;28;20399;-66
2022/07/31 05:41:03;;;;;;;;;;;;;;;51.28;12.51;96724.66;6220959;28;19925;-65
2022/07/31 05:44:06;;;;;;;;;;;;;;;51.40;12.44;96721.72;6220770;28;20462;-65
2022/07/31 05:47:10;;;;;;;;;;;;;;;51.99;11.10;96720.44;6220743;28;19925;-66
2022/07/31 05:50:11;;;;;;;;;;;;;;;52.30;12.13;96718.56;6220672;28;20304;-65
2022/07/31 05:53:14;;;;;;;;;;;;;;;51.98;12.06;96706.75;6220650;28;20296;-66
2022/07/31 05:56:15;;;;;;;;;;;;;;;51.90;9.53;96705.84;6220362;28;19921;-65
2022/07/31 05:59:20;;;;;;;;;;;;;;;52.66;11.86;96700.31;6220678;28;20023;-66
2022/07/31 06:02:25;;;;;;;;;;;;;;;53.94;10.94;96703.09;6220822;28;20379;-66
2022/07/31 06:05:29;;;;;;;;;;;;;;;55.42;10.65;96705.72;6223768;28;19921;-66
2022/07/31 06:08:32;;;;;;;;;;;;;;;54.21;10.67;96692.47;6224736;28;19926;-66
2022/07/31 06:11:33;;;;;;;;;;;;;;;51.30;12.88;96681.06;6224804;28;19932;-66
2022/07/31 06:14:36;;;;;;;;;;;;;;;48.17;11.24;96666.72;6224815;28;19933;-66
2022/07/31 06:17:38;;;;;;;;;;;;;;;48.11;14.67;96663.31;6225121;28;20387;-66
2022/07/31 06:20:41;;;;;;;;;;;;;;;51.32;9.31;96681.50;6224915;28;19925;-66
2022/07/31 06:23:44;;;;;;;;;;;;;;;53.74;10.98;96682.81;6224788;28;19925;-65
2022/07/31 06:26:48;;;;;;;;;;;;;;;52.03;11.84;96679.22;6224799;28;19926;-66
2022/07/31 06:29:49;;;;;;;;;;;;;;;48.58;14.01;96662.03;6224480;28;19925;-65
2022/07/31 06:32:55;;;;;;;;;;;;;;;48.65;13.06;96659.47;6224654;28;20375;-65
2022/07/31 06:36:01;;;;;;;;;;;;;;;51.25;10.80;96670.13;6224496;28;20015;-66
2022/07/31 06:39:02;;;;;;;;;;;;;;;53.68;9.28;96673.13;6224232;28;19925;-65
2022/07/31 06:42:08;;;;;;;;;;;;;;;55.30;8.50;96680.72;6224434;28;19933;-66
2022/07/31 06:45:10;;;;;;;;;;;;;;;53.51;10.06;96670.88;6224374;28;19941;-65
2022/07/31 06:48:13;;;;;;;;;;;;;;;50.57;11.03;96659.44;6224299;28;19925;-66
2022/07/31 06:51:16;;;;;;;;;;;;;;;48.93;11.63;96649.16;6224209;28;19933;-66
2022/07/31 06:54:20;;;;;;;;;;;;;;;47.19;12.67;96645.75;6224209;28;19926;-66
2022/07/31 06:57:24;;;;;;;;;;;;;;;44.05;15.12;96628.38;6224051;28;20346;-66
2022/07/31 07:00:28;;;;;;;;;;;;;;;42.00;15.98;96626.13;6224006;28;19926;-66
2022/07/31 07:03:33;;;;;;;;;;;;;;;42.08;16.07;96623.47;6224179;28;19929;-66
2022/07/31 07:06:34;;;;;;;;;;;;;;;42.19;15.26;96612.19;6223832;28;19925;-66
2022/07/31 07:09:35;;;;;;;;;;;;;;;41.05;15.99;96594.19;6223702;28;19965;-66
2022/07/31 07:12:37;;;;;;;;;;;;;;;41.50;15.47;96590.88;6223125;28;20482;-65
2022/07/31 07:15:42;;;;;;;;;;;;;;;44.22;14.07;96599.03;6222574;28;19936;-65
2022/07/31 07:18:43;;;;;;;;;;;;;;;47.56;11.73;96604.09;6223298;28;19932;-65
2022/07/31 07:21:50;;;;;;;;;;;;;;;49.72;10.32;96617.81;6223575;28;20398;-65
2022/07/31 07:24:51;;;;;;;;;;;;;;;52.07;9.12;96609.94;6223171;28;20019;-65
2022/07/31 07:27:52;;;;;;;;;;;;;;;53.76;8.78;96618.50;6223095;28;20403;-64
2022/07/31 07:30:57;;;;;;;;;;;;;;;54.97;8.66;96629.00;6222961;28;19925;-65
2022/07/31 07:34:04;;;;;;;;;;;;;;;53.17;8.09;96614.69;6223186;28;19926;-66
2022/07/31 07:37:08;;;;;;;;;;;;;;;48.97;10.56;96597.00;6223252;28;19929;-64
2022/07/31 07:40:11;;;;;;;;;;;;;;;44.71;12.88;96583.91;6222916;28;19929;-66
2022/07/31 07:43:15;;;;;;;;;;;;;;;42.37;15.21;96580.84;6222468;28;19925;-66
2022/07/31 07:46:19;;;;;;;;;;;;;;;40.90;16.36;96564.03;6222988;28;19925;-65
2022/07/31 07:49:20;;;;;;;;;;;;;;;39.95;16.86;96560.47;6222686;28;19925;-65
2022/07/31 07:52:24;;;;;;;;;;;;;;;40.39;16.17;96567.59;6221714;28;20303;-67
2022/07/31 07:55:25;;;;;;;;;;;;;;;40.95;15.55;96563.94;6222565;28;20303;-65
2022/07/31 07:58:27;;;;;;;;;;;;;;;39.64;16.73;96552.56;6222772;28;19926;-65
2022/07/31 08:01:28;;;;;;;;;;;;;;;38.29;17.88;96550.44;6222241;28;19933;-66
2022/07/31 08:04:30;;;;;;;;;;;;;;;36.98;18.82;96543.19;6222454;28;19960;-66
2022/07/31 08:07:38;;;;;;;;;;;;;;;36.31;19.61;96539.59;6222384;28;19925;-65
2022/07/31 08:10:44;;;;;;;;;;;;;;;35.69;19.62;96545.97;6221872;28;20410;-65
2022/07/31 08:13:48;;;;;;;;;;;;;;;36.19;19.02;96548.06;6221591;28;19932;-66
2022/07/31 08:16:49;;;;;;;;;;;;;;;40.05;16.12;96556.75;6222092;28;20310;-66
2022/07/31 08:19:52;;;;;;;;;;;;;;;44.95;13.04;96555.66;6221955;28;19929;-65
2022/07/31 08:22:56;;;;;;;;;;;;;;;49.35;10.70;96570.50;6222120;28;19969;-65
2022/07/31 08:26:03;;;;;;;;;;;;;;;52.15;9.42;96582.81;6222049;28;19930;-66
2022/07/31 08:29:05;;;;;;;;;;;;;;;53.93;8.40;96582.44;6221239;28;19926;-65
2022/07/31 08:32:06;;;;;;;;;;;;;;;54.38;7.99;96580.38;6221873;28;19925;-65
2022/07/31 08:35:10;;;;;;;;;;;;;;;55.35;8.38;96587.22;6222001;28;19925;-65
2022/07/31 08:38:15;;;;;;;;;;;;;;;56.23;7.42;96593.34;6221916;28;19934;-66
2022/07/31 08:41:19;;;;;;;;;;;;;;;56.20;7.77;96591.28;6222061;28;19925;-64
2022/07/31 08:44:24;;;;;;;;;;;;;;;53.63;8.78;96574.97;6221778;28;19927;-66
2022/07/31 08:47:27;;;;;;;;;;;;;;;51.62;9.36;96572.28;6221589;28;20399;-65
2022/07/31 08:50:33;;;;;;;;;;;;;;;49.70;9.79;96555.03;6221407;28;19926;-66
2022/07/31 08:53:35;;;;;;;;;;;;;;;50.24;9.46;96552.31;6221621;28;19949;-65
2022/07/31 08:56:39;;;;;;;;;;;;;;;52.22;8.68;96554.03;6220779;28;19981;-66
2022/07/31 08:59:43;;;;;;;;;;;;;;;53.66;7.54;96560.16;6220773;28;20027;-65
2022/07/31 09:02:51;;;;;;;;;;;;;;;54.36;7.09;96554.63;6221360;28;19970;-65
2022/07/31 09:05:52;;;;;;;;;;;;;;;54.97;6.38;96560.56;6220770;28;20307;-66
2022/07/31 09:08:56;;;;;;;;;;;;;;;55.42;6.75;96558.22;6221215;28;19925;-66
2022/07/31 09:11:57;;;;;;;;;;;;;;;54.12;7.39;96551.25;6221009;28;19932;-66
2022/07/31 09:14:58;;;;;;;;;;;;;;;50.61;8.55;96539.91;6221531;28;19926;-65
2022/07/31 09:18:01;;;;;;;;;;;;;;;46.64;10.55;96524.38;6220051;28;20459;-65
2022/07/31 09:21:06;;;;;;;;;;;;;;;43.75;12.50;96512.81;6221324;28;20311;-65
2022/07/31 09:24:10;;;;;;;;;;;;;;;41.91;13.30;96508.03;6221290;28;20016;-66
2022/07/31 09:27:16;;;;;;;;;;;;;;;39.70;15.09;96485.28;6221204;28;19929;-66
2022/07/31 09:30:17;;;;;;;;;;;;;;;38.67;15.71;96476.50;6221196;28;19972;-65
2022/07/31 09:33:26;;;;;;;;;;;;;;;38.65;15.74;96475.16;6221082;28;20020;-64
2022/07/31 09:36:33;;;;;;;;;;;;;;;41.77;13.55;96484.28;6221503;28;19925;-65
2022/07/31 09:39:34;;;;;;;;;;;;;;;43.16;12.84;96485.38;6221986;28;19932;-65
2022/07/31 09:42:43;;;;;;;;;;;;;;;44.30;11.71;96493.63;6225955;28;19932;-66
2022/07/31 09:46:00;;;;;;;;;;;;;;;46.17;10.85;96494.00;6225649;28;20414;-65
2022/07/31 09:49:02;;;;;;;;;;;;;;;46.76;10.68;96499.41;6225598;28;19925;-66
2022/07/31 09:52:05;;;;;;;;;;;;;;;47.84;9.88;96497.47;6225486;28;19926;-65
2022/07/31 09:55:11;;;;;;;;;;;;;;;48.62;9.94;96492.66;6225594;28;19925;-64
2022/07/31 09:58:15;;;;;;;;;;;;;;;48.08;9.76;96486.28;6225393;28;19929;-65
2022/07/31 10:01:16;;;;;;;;;;;;;;;48.01;9.87;96480.47;6224952;28;19925;-65
2022/07/31 10:04:18;;;;;;;;;;;;;;;48.48;9.88;96484.66;6224491;28;19933;-65
2022/07/31 10:07:26;;;;;;;;;;;;;;;48.90;9.42;96482.28;6225299;28;19921;-65
2022/07/31 10:10:30;;;;;;;;;;;;;;;49.04;9.47;96478.25;6225008;28;20004;-66
2022/07/31 10:13:34;;;;;;;;;;;;;;;48.33;9.96;96470.31;6224689;28;20063;-65
2022/07/31 10:16:40;;;;;;;;;;;;;;;46.97;10.48;96470.69;6225234;28;19925;-65
2022/07/31 10:19:45;;;;;;;;;;;;;;;46.27;10.80;96454.66;6224271;28;20413;-65
2022/07/31 10:22:52;;;;;;;;;;;;;;;46.41;10.76;96459.16;6223705;28;19926;-65
2022/07/31 10:26:01;;;;;;;;;;;;;;;46.27;10.83;96454.66;6224757;28;20028;-65
2022/07/31 10:29:03;;;;;;;;;;;;;;;45.82;11.23;96449.75;6224159;28;19931;-65
2022/07/31 10:32:04;;;;;;;;;;;;;;;44.73;11.85;96448.44;6224429;28;19937;-65
2022/07/31 10:35:06;;;;;;;;;;;;;;;44.40;12.25;96439.84;6224319;28;19925;-65
2022/07/31 10:38:14;;;;;;;;;;;;;;;44.18;12.31;96437.22;6224355;28;19991;-65
2022/07/31 10:41:18;;;;;;;;;;;;;;;44.04;12.55;96435.44;6224652;28;19925;-65
2022/07/31 10:44:34;;;;;;;;;;;;;;;44.65;11.92;96431.81;6224305;28;19932;-64
2022/07/31 10:47:52;;;;;;;;;;;;;;;44.65;12.05;96429.84;6224331;28;19925;-66
2022/07/31 10:50:59;;;;;;;;;;;;;;;45.13;11.54;96430.63;6223973;28;20004;-66
2022/07/31 10:54:10;;;;;;;;;;;;;;;45.27;11.50;96431.28;6224033;28;20068;-65
2022/07/31 10:57:40;;;;;;;;;;;;;;;45.06;11.53;96424.81;6223992;28;19925;-66
2022/07/31 11:00:50;;;;;;;;;;;;;;;45.60;11.48;96419.50;6215789;28;20028;-65
2022/07/31 11:03:58;;;;;;;;;;;;;;;46.05;11.15;96421.63;6223600;28;19951;-65
2022/07/31 11:07:13;;;;;;;;;;;;;;;45.97;11.22;96417.75;6223858;28;19925;-66
2022/07/31 11:10:16;;;;;;;;;;;;;;;45.09;11.54;96422.16;6223183;28;20422;-66
2022/07/31 11:13:17;;;;;;;;;;;;;;;43.77;12.80;96411.59;6223430;28;19926;-66
2022/07/31 11:16:21;;;;;;;;;;;;;;;43.67;12.50;96417.44;6222294;28;19948;-65
2022/07/31 11:19:36;;;;;;;;;;;;;;;44.28;12.55;96409.16;6223280;28;19926;-66
2022/07/31 11:22:40;;;;;;;;;;;;;;;44.71;12.94;96414.63;6223593;28;19925;-66
2022/07/31 11:25:41;;;;;;;;;;;;;;;44.45;13.49;96409.16;6222766;28;19925;-66
2022/07/31 11:28:45;;;;;;;;;;;;;;;43.95;13.70;96395.00;6223710;28;19921;-65
2022/07/31 11:31:48;;;;;;;;;;;;;;;43.65;13.85;96392.81;6223399;28;19926;-66
2022/07/31 11:34:52;;;;;;;;;;;;;;;43.22;14.67;96384.44;6223368;28;19925;-65
2022/07/31 11:37:56;;;;;;;;;;;;;;;42.92;14.78;96380.56;6223204;28;19929;-66
2022/07/31 11:41:03;;;;;;;;;;;;;;;42.77;14.39;96385.38;6223027;28;20019;-66
2022/07/31 11:44:05;;;;;;;;;;;;;;;42.69;14.45;96383.38;6222982;28;20304;-65
2022/07/31 11:47:08;;;;;;;;;;;;;;;42.29;14.72;96379.72;6222944;28;20314;-65
2022/07/31 11:50:12;;;;;;;;;;;;;;;41.86;15.37;96375.47;6222947;28;19926;-66
2022/07/31 11:53:16;;;;;;;;;;;;;;;41.92;15.30;96377.00;6221445;28;20340;-66
2022/07/31 11:56:18;;;;;;;;;;;;;;;41.92;15.90;96377.00;6222743;28;19953;-65
2022/07/31 11:59:29;;;;;;;;;;;;;;;41.49;15.93;96374.69;6222361;28;19925;-65
2022/07/31 12:02:33;;;;;;;;;;;;;;;41.27;16.26;96374.59;6221800;28;19925;-66
2022/07/31 12:05:42;;;;;;;;;;;;;;;40.57;16.84;96375.69;6222545;28;19936;-65
2022/07/31 12:08:45;;;;;;;;;;;;;;;40.11;17.18;96385.53;6221485;28;19932;-66
2022/07/31 12:11:48;;;;;;;;;;;;;;;38.79;18.30;96377.94;6222102;28;19926;-65
2022/07/31 12:14:49;;;;;;;;;;;;;;;37.26;19.00;96379.94;6222033;28;19925;-66
2022/07/31 12:18:00;;;;;;;;;;;;;;;36.15;20.08;96381.81;6222269;28;20310;-66
2022/07/31 12:21:04;;;;;;;;;;;;;;;36.12;19.95;96388.69;6222259;28;19929;-65
2022/07/31 12:24:12;;;;;;;;;;;;;;;36.84;19.19;96388.56;6222148;28;20296;-66
2022/07/31 12:27:18;;;;;;;;;;;;;;;37.69;18.97;96393.16;6222128;28;19926;-65
2022/07/31 12:30:24;;;;;;;;;;;;;;;38.27;17.94;96390.50;6221933;28;19929;-66
2022/07/31 12:33:38;;;;;;;;;;;;;;;38.59;17.78;96389.97;6221767;28;19932;-65
2022/07/31 12:36:41;;;;;;;;;;;;;;;38.94;17.57;96395.41;6221626;28;19930;-65
2022/07/31 12:39:45;;;;;;;;;;;;;;;39.34;17.14;96398.78;6221652;28;19930;-66
2022/07/31 12:42:46;;;;;;;;;;;;;;;39.35;17.20;96394.91;6221571;28;19931;-67
2022/07/31 12:45:50;;;;;;;;;;;;;;;39.19;17.34;96388.78;6221497;28;19925;-66
2022/07/31 12:48:53;;;;;;;;;;;;;;;39.12;17.35;96389.13;6221700;28;20323;-66
2022/07/31 12:51:54;;;;;;;;;;;;;;;38.76;17.79;96389.53;6220785;28;19941;-66
2022/07/31 12:54:58;;;;;;;;;;;;;;;38.36;17.60;96377.81;6221231;28;19932;-66
2022/07/31 12:57:59;;;;;;;;;;;;;;;37.72;18.29;96381.59;6221147;28;20299;-65
2022/07/31 13:01:02;;;;;;;;;;;;;;;37.28;18.59;96371.41;6221307;28;20383;-66
2022/07/31 13:04:08;;;;;;;;;;;;;;;36.71;18.73;96378.19;6220177;28;20384;-66
2022/07/31 13:07:10;;;;;;;;;;;;;;;36.05;19.42;96371.69;6221369;28;19925;-66
2022/07/31 13:10:14;;;;;;;;;;;;;;;35.66;19.73;96371.38;6220788;28;20016;-67
2022/07/31 13:13:18;;;;;;;;;;;;;;;35.41;19.76;96369.38;6222754;28;19925;-66
2022/07/31 13:16:19;;;;;;;;;;;;;;;34.96;20.16;96366.22;6225980;28;20006;-66
2022/07/31 13:19:21;;;;;;;;;;;;;;;34.61;20.51;96358.66;6225883;28;19926;-65
2022/07/31 13:22:24;;;;;;;;;;;;;;;34.45;20.47;96359.63;6225793;28;19925;-65
2022/07/31 13:25:31;;;;;;;;;;;;;;;34.55;20.18;96362.41;6207811;28;20349;-66
2022/07/31 13:28:37;;;;;;;;;;;;;;;34.55;20.43;96360.53;6226056;28;19929;-67
2022/07/31 13:31:43;;;;;;;;;;;;;;;34.71;20.18;96358.72;6226041;28;19925;-66
2022/07/31 13:34:44;;;;;;;;;;;;;;;34.94;20.13;96359.38;6225906;28;19930;-66
2022/07/31 13:37:47;;;;;;;;;;;;;;;35.19;19.91;96355.91;6226185;28;20022;-65
2022/07/31 13:44:10;;;;;;;;;;;;;;;35.39;19.82;96368.84;6225858;28;19925;-65
2022/07/31 13:47:13;;;;;;;;;;;;;;;35.50;19.79;96365.84;6225475;28;19925;-65
2022/07/31 13:50:17;;;;;;;;;;;;;;;35.64;19.70;96368.91;6225628;28;20406;-65
2022/07/31 13:53:18;;;;;;;;;;;;;;;35.42;19.83;96373.78;6225387;28;19931;-65
2022/07/31 13:56:19;;;;;;;;;;;;;;;35.06;20.46;96381.84;6225357;28;19951;-66
2022/07/31 13:59:23;;;;;;;;;;;;;;;34.77;20.78;96379.50;6225330;28;19925;-65
2022/07/31 14:02:24;;;;;;;;;;;;;;;34.36;21.33;96373.75;6224025;28;19948;-65
2022/07/31 14:05:27;;;;;;;;;;;;;;;34.00;21.92;96364.50;6225292;28;19925;-69
2022/07/31 14:08:33;;;;;;;;;;;;;;;33.75;21.84;96373.28;6224796;28;20015;-66
2022/07/31 14:11:37;;;;;;;;;;;;;;;33.38;22.61;96373.97;6224532;28;20444;-66
2022/07/31 14:14:38;;;;;;;;;;;;;;;32.83;23.18;96377.66;6224955;28;19932;-65
2022/07/31 14:17:42;;;;;;;;;;;;;;;32.42;23.66;96377.09;6224782;28;19929;-67
2022/07/31 14:20:44;;;;;;;;;;;;;;;32.13;23.89;96381.81;6224334;28;19926;-66
2022/07/31 14:23:45;;;;;;;;;;;;;;;31.86;24.81;96378.91;6224576;28;19932;-66
2022/07/31 14:26:46;;;;;;;;;;;;;;;31.41;25.20;96371.59;6223767;28;19925;-66
2022/07/31 14:29:50;;;;;;;;;;;;;;;30.83;26.38;96376.97;6224416;28;19925;-65
2022/07/31 14:32:52;;;;;;;;;;;;;;;30.33;28.12;96388.31;6224567;28;19925;-66
2022/07/31 14:35:56;;;;;;;;;;;;;;;29.91;29.02;96385.66;6224175;28;19925;-66
2022/07/31 14:38:59;;;;;;;;;;;;;;;29.57;29.50;96383.69;6224754;28;19925;-66
2022/07/31 14:42:02;;;;;;;;;;;;;;;29.34;29.88;96379.84;6224389;28;20322;-66
2022/07/31 14:45:06;;;;;;;;;;;;;;;29.24;29.91;96390.38;6224437;28;19925;-66
2022/07/31 14:48:12;;;;;;;;;;;;;;;29.19;30.04;96390.28;6224400;28;19925;-65
2022/07/31 14:51:16;;;;;;;;;;;;;;;29.08;29.86;96386.44;6224141;28;19932;-65
2022/07/31 14:54:19;;;;;;;;;;;;;;;29.01;30.21;96389.19;6224173;28;20023;-65
2022/07/31 14:57:22;;;;;;;;;;;;;;;28.82;30.35;96383.00;6223986;28;19928;-66
2022/07/31 15:00:24;;;;;;;;;;;;;;;28.52;30.44;96385.59;6224044;28;20008;-66
2022/07/31 15:03:25;;;;;;;;;;;;;;;28.34;30.52;96391.00;6223785;28;20343;-67
2022/07/31 15:06:31;;;;;;;;;;;;;;;28.20;30.53;96380.28;6223942;28;19922;-66
2022/07/31 15:09:34;;;;;;;;;;;;;;;28.02;30.75;96387.53;6223538;28;20414;-66
2022/07/31 15:12:40;;;;;;;;;;;;;;;27.86;30.88;96378.94;6223284;28;19929;-65
2022/07/31 15:15:41;;;;;;;;;;;;;;;27.67;31.01;96386.09;6223338;28;19926;-66
2022/07/31 15:18:43;;;;;;;;;;;;;;;27.55;31.33;96387.88;6223146;28;19932;-66
2022/07/31 15:21:49;;;;;;;;;;;;;;;27.40;31.11;96390.03;6223666;28;20019;-66
2022/07/31 15:24:53;;;;;;;;;;;;;;;27.23;31.18;96385.16;6222971;28;19936;-67
2022/07/31 15:27:54;;;;;;;;;;;;;;;27.11;31.35;96386.81;6221411;28;20419;-65
2022/07/31 15:30:57;;;;;;;;;;;;;;;26.89;31.53;96383.59;6222909;28;19926;-66
2022/07/31 15:34:03;;;;;;;;;;;;;;;26.73;31.70;96379.53;6223562;28;20391;-65
2022/07/31 15:37:06;;;;;;;;;;;;;;;26.66;31.98;96373.31;6221983;28;20426;-66
2022/07/31 15:40:11;;;;;;;;;;;;;;;26.55;31.59;96376.66;6223200;28;20343;-66
2022/07/31 15:43:16;;;;;;;;;;;;;;;26.42;31.87;96370.25;6222838;28;19925;-66
2022/07/31 15:46:18;;;;;;;;;;;;;;;26.27;32.29;96379.59;6222669;28;19933;-65
2022/07/31 15:49:21;;;;;;;;;;;;;;;26.13;32.38;96376.13;6222909;28;19925;-65
2022/07/31 15:52:25;;;;;;;;;;;;;;;25.95;32.80;96372.19;6222780;28;19925;-66
2022/07/31 15:55:27;;;;;;;;;;;;;;;25.73;32.90;96368.00;6222963;28;20418;-66
2022/07/31 15:58:29;;;;;;;;;;;;;;;25.57;33.26;96379.22;6222212;28;19921;-65
2022/07/31 16:01:34;;;;;;;;;;;;;;;25.45;33.05;96381.66;6222646;28;19925;-65